Time;durP1;ratioP1;P1;durP2;ratioP2;P2;SDS_P1;SDS_P2;PMS_P1;PMS_P2;Temp;Humidity;BMP_temperature;BMP_pressure;BME280_temperature;BME280_humidity;BME280_pressure;Samples;Min_cycle;Max_cycle;Signal;HPM_P1;HPM_P2
2023/04/23 00:00:48;;;;;;;16.23;11.50;;;13.50;99.90;;;;;;5073513;28;20481;-61
2023/04/23 00:03:18;;;;;;;15.70;10.93;;;13.40;99.90;;;;;;5049422;28;21105;-61
2023/04/23 00:05:45;;;;;;;16.13;11.17;;;13.40;99.90;;;;;;5054187;28;20521;-61
2023/04/23 00:08:16;;;;;;;15.57;10.80;;;13.40;99.90;;;;;;5058213;28;20896;-62
2023/04/23 00:10:43;;;;;;;20.20;10.63;;;13.40;99.90;;;;;;5060755;28;20486;-61
2023/04/23 00:13:10;;;;;;;17.47;10.50;;;13.30;99.90;;;;;;5057054;28;20474;-61
2023/04/23 00:15:38;;;;;;;14.73;9.30;;;13.30;99.90;;;;;;5063226;28;20486;-61
2023/04/23 00:18:05;;;;;;;19.30;10.43;;;13.40;99.90;;;;;;5073392;28;20475;-61
2023/04/23 00:20:33;;;;;;;18.50;10.60;;;13.40;99.90;;;;;;5060272;28;21308;-61
2023/04/23 00:22:59;;;;;;;20.30;11.53;;;13.50;99.90;;;;;;5057865;28;20490;-61
2023/04/23 00:25:27;;;;;;;20.93;11.20;;;13.60;99.90;;;;;;5066311;28;20539;-61
2023/04/23 00:27:54;;;;;;;22.90;11.77;;;13.60;99.90;;;;;;5056755;28;20894;-62
2023/04/23 00:30:21;;;;;;;23.23;12.30;;;13.60;99.90;;;;;;5049854;28;20509;-62
2023/04/23 00:32:48;;;;;;;21.83;10.77;;;13.60;99.90;;;;;;5061140;28;20863;-62
2023/04/23 00:35:15;;;;;;;14.67;10.17;;;13.70;99.90;;;;;;5069929;28;20487;-62
2023/04/23 00:37:42;;;;;;;20.03;10.23;;;13.70;99.90;;;;;;5073236;28;20482;-62
2023/04/23 00:40:10;;;;;;;20.77;9.87;;;13.70;99.90;;;;;;5072087;28;20475;-62
2023/04/23 00:42:39;;;;;;;17.50;10.10;;;13.60;99.90;;;;;;5057178;28;20486;-62
2023/04/23 00:45:08;;;;;;;13.20;8.27;;;13.60;99.90;;;;;;5068941;28;20896;-62
2023/04/23 00:47:35;;;;;;;14.83;8.90;;;13.60;99.90;;;;;;5030250;28;20547;-61
2023/04/23 00:50:02;;;;;;;12.80;8.50;;;13.50;99.90;;;;;;5058186;28;20490;-61
2023/04/23 00:52:30;;;;;;;17.20;9.63;;;13.40;99.90;;;;;;5056259;28;20482;-62
2023/04/23 00:54:57;;;;;;;17.80;8.73;;;13.40;99.90;;;;;;5068241;28;20482;-61
2023/04/23 00:57:24;;;;;;;16.90;8.70;;;13.40;99.90;;;;;;5065946;28;20494;-62
2023/04/23 00:59:54;;;;;;;31.53;11.37;;;13.30;99.90;;;;;;5036894;28;20855;-61
2023/04/23 01:02:21;;;;;;;21.80;11.37;;;13.30;99.90;;;;;;5043256;28;20487;-62
2023/04/23 01:04:50;;;;;;;19.50;10.13;;;13.30;99.90;;;;;;5046683;28;20553;-62
2023/04/23 01:07:17;;;;;;;25.00;11.97;;;13.40;99.90;;;;;;5021784;28;20493;-62
2023/04/23 01:09:44;;;;;;;15.03;8.63;;;13.40;99.90;;;;;;5052480;28;21117;-62
2023/04/23 01:12:11;;;;;;;19.80;10.17;;;13.40;99.90;;;;;;5051965;28;20839;-62
2023/04/23 01:14:38;;;;;;;17.30;9.63;;;13.40;99.90;;;;;;5044117;28;20484;-62
2023/04/23 01:17:07;;;;;;;19.00;10.30;;;13.30;99.90;;;;;;5029981;28;20849;-61
2023/04/23 01:19:34;;;;;;;21.37;11.37;;;13.30;99.90;;;;;;5049478;28;20486;-61
2023/04/23 01:22:01;;;;;;;25.93;10.87;;;13.20;99.90;;;;;;5054846;28;20474;-61
2023/04/23 01:24:31;;;;;;;17.57;10.57;;;13.10;99.90;;;;;;5020532;28;20485;-61
2023/04/23 01:26:58;;;;;;;20.70;12.20;;;13.10;99.90;;;;;;5045122;28;21047;-61
2023/04/23 01:29:25;;;;;;;28.40;11.83;;;13.00;99.90;;;;;;5061385;28;20726;-62
2023/04/23 01:31:54;;;;;;;23.97;11.63;;;13.00;99.90;;;;;;5049702;28;20479;-61
2023/04/23 01:34:21;;;;;;;20.97;11.70;;;13.00;99.90;;;;;;5039740;28;20487;-61
2023/04/23 01:36:48;;;;;;;18.80;10.90;;;13.00;99.90;;;;;;5044162;28;20475;-61
2023/04/23 01:39:15;;;;;;;22.33;12.23;;;12.90;99.90;;;;;;5035233;28;21415;-61
2023/04/23 01:41:44;;;;;;;22.10;11.27;;;13.00;99.90;;;;;;5057097;28;20976;-62
2023/04/23 01:44:10;;;;;;;24.97;11.37;;;12.90;99.90;;;;;;5052121;28;20676;-61
2023/04/23 01:46:37;;;;;;;21.37;11.30;;;12.80;99.90;;;;;;5040288;28;20486;-61
2023/04/23 01:49:05;;;;;;;20.13;10.73;;;12.80;99.90;;;;;;5038299;28;20591;-61
2023/04/23 01:51:32;;;;;;;22.83;9.77;;;12.70;99.90;;;;;;5051425;28;20467;-61
2023/04/23 01:53:59;;;;;;;27.83;13.63;;;12.70;99.90;;;;;;5027903;28;20487;-61
2023/04/23 01:56:29;;;;;;;26.53;11.87;;;12.70;99.90;;;;;;5038980;28;20491;-61
2023/04/23 01:58:57;;;;;;;27.43;9.67;;;12.70;99.90;;;;;;5044966;28;20530;-62
2023/04/23 02:01:24;;;;;;;19.73;9.70;;;12.70;99.90;;;;;;5047620;28;20480;-61
2023/04/23 02:03:50;;;;;;;23.23;10.03;;;13.40;99.90;;;;;;5036148;28;20479;-62
2023/04/23 02:06:17;;;;;;;17.97;9.67;;;12.80;99.90;;;;;;5040287;28;20484;-61
2023/04/23 02:08:44;;;;;;;17.00;8.97;;;12.90;99.90;;;;;;5051892;28;20479;-61
2023/04/23 02:11:10;;;;;;;18.60;9.30;;;12.80;99.90;;;;;;5054959;28;20483;-61
2023/04/23 02:13:37;;;;;;;26.40;10.97;;;12.80;99.90;;;;;;5047719;28;20490;-62
2023/04/23 02:16:06;;;;;;;20.33;10.80;;;12.80;99.90;;;;;;5048589;28;21007;-61
2023/04/23 02:18:33;;;;;;;17.10;9.40;;;12.80;99.90;;;;;;5037683;28;20483;-61
2023/04/23 02:21:00;;;;;;;23.00;10.53;;;12.70;99.90;;;;;;5047235;28;20673;-61
2023/04/23 02:23:27;;;;;;;20.50;10.93;;;12.70;99.90;;;;;;5031034;28;20553;-61
2023/04/23 02:25:54;;;;;;;23.20;12.00;;;;;;;;;;5051221;28;20492;-61
2023/04/23 02:28:21;;;;;;;25.00;11.40;;;12.80;99.90;;;;;;5044095;28;20470;-61
2023/04/23 02:30:47;;;;;;;29.43;11.17;;;12.90;99.90;;;;;;5014848;28;20464;-62
2023/04/23 02:33:15;;;;;;;22.67;10.17;;;13.00;99.90;;;;;;5045729;28;21147;-61
2023/04/23 02:35:42;;;;;;;14.30;8.33;;;13.10;99.90;;;;;;5024525;28;20715;-61
2023/04/23 02:38:09;;;;;;;14.13;8.13;;;13.10;99.90;;;;;;5049333;28;20475;-61
2023/04/23 02:40:38;;;;;;;22.67;12.30;;;12.90;99.90;;;;;;5045645;28;20459;-61
2023/04/23 02:43:04;;;;;;;18.30;10.07;;;12.80;99.90;;;;;;5038093;28;20483;-61
2023/04/23 02:45:31;;;;;;;17.03;9.90;;;12.70;99.90;;;;;;5036657;28;20493;-62
2023/04/23 02:47:58;;;;;;;16.70;9.60;;;12.50;99.90;;;;;;5042138;28;20489;-61
2023/04/23 02:50:26;;;;;;;21.93;10.27;;;12.50;99.90;;;;;;5052676;28;20858;-60
2023/04/23 02:52:53;;;;;;;16.23;9.47;;;12.40;99.90;;;;;;5049648;28;21069;-61
2023/04/23 02:55:19;;;;;;;19.07;9.43;;;12.30;99.90;;;;;;5022719;28;20495;-61
2023/04/23 02:57:46;;;;;;;15.93;10.37;;;12.30;99.90;;;;;;5054154;28;20490;-61
2023/04/23 03:00:15;;;;;;;17.50;10.03;;;12.30;99.90;;;;;;5067912;28;20483;-61
2023/04/23 03:02:42;;;;;;;22.70;10.67;;;12.40;99.90;;;;;;5068788;28;20482;-61
2023/04/23 03:05:09;;;;;;;16.30;8.43;;;12.40;99.90;;;;;;5055123;28;20466;-61
2023/04/23 03:07:37;;;;;;;14.53;8.90;;;12.40;99.90;;;;;;5069068;28;20843;-62
2023/04/23 03:10:05;;;;;;;21.63;11.30;;;12.40;99.90;;;;;;5058070;28;20478;-61
2023/04/23 03:12:32;;;;;;;17.53;10.00;;;12.40;99.90;;;;;;5041618;28;20532;-61
2023/04/23 03:14:58;;;;;;;17.00;10.73;;;12.40;99.90;;;;;;5063213;28;20485;-61
2023/04/23 03:17:32;;;;;;;15.30;9.03;;;12.40;99.90;;;;;;5057193;28;20885;-61
2023/04/23 03:19:58;;;;;;;24.03;12.00;;;12.40;99.90;;;;;;5067140;28;20886;-61
2023/04/23 03:22:25;;;;;;;17.37;9.67;;;12.50;99.90;;;;;;5069353;28;20478;-61
2023/04/23 03:24:53;;;;;;;19.60;7.00;;;12.50;99.90;;;;;;5047175;28;20485;-62
2023/04/23 03:27:20;;;;;;;23.33;11.67;;;12.50;99.90;;;;;;5058104;28;20493;-61
2023/04/23 03:29:46;;;;;;;20.13;11.33;;;12.50;99.90;;;;;;5076822;28;20475;-61
2023/04/23 03:32:13;;;;;;;21.73;10.43;;;12.50;99.90;;;;;;5071927;28;20816;-61
2023/04/23 03:34:40;;;;;;;16.87;9.90;;;12.50;99.90;;;;;;5064334;28;20482;-61
2023/04/23 03:37:06;;;;;;;27.77;12.67;;;12.40;99.90;;;;;;5056218;28;20501;-61
2023/04/23 03:39:33;;;;;;;30.77;12.77;;;12.30;99.90;;;;;;5062691;28;20478;-61
2023/04/23 03:42:01;;;;;;;15.83;9.90;;;12.30;99.90;;;;;;5053758;28;20745;-61
2023/04/23 03:44:28;;;;;;;15.73;10.07;;;12.20;99.90;;;;;;5076148;28;20478;-61
2023/04/23 03:46:55;;;;;;;24.90;9.27;;;12.20;99.90;;;;;;5078009;28;20474;-61
2023/04/23 03:49:21;;;;;;;21.20;11.90;;;12.20;99.90;;;;;;5060982;28;20478;-61
2023/04/23 03:51:48;;;;;;;14.03;8.40;;;12.30;99.90;;;;;;5069759;28;20876;-61
2023/04/23 03:54:15;;;;;;;16.83;9.20;;;12.30;99.90;;;;;;5055811;28;20660;-61
2023/04/23 03:56:42;;;;;;;20.40;10.47;;;12.30;99.90;;;;;;5068119;28;21329;-61
2023/04/23 03:59:10;;;;;;;22.57;12.27;;;12.30;99.90;;;;;;5066577;28;20858;-61
2023/04/23 04:01:36;;;;;;;23.43;9.00;;;12.30;99.90;;;;;;5019151;28;20491;-61
2023/04/23 04:04:03;;;;;;;15.00;9.77;;;12.30;99.90;;;;;;5057679;28;20491;-61
2023/04/23 04:06:30;;;;;;;14.73;9.67;;;12.30;99.90;;;;;;5053456;28;20864;-61
2023/04/23 04:08:57;;;;;;;17.90;11.40;;;12.30;99.90;;;;;;5044101;28;20477;-61
2023/04/23 04:11:23;;;;;;;17.73;10.57;;;12.30;99.90;;;;;;5031434;28;20503;-61
2023/04/23 04:13:50;;;;;;;11.50;7.87;;;12.40;99.90;;;;;;5045556;28;20483;-61
2023/04/23 04:16:18;;;;;;;18.43;11.17;;;12.40;99.90;;;;;;5073624;28;20482;-61
2023/04/23 04:18:45;;;;;;;20.50;11.70;;;12.40;99.90;;;;;;5044196;28;20489;-61
2023/04/23 04:21:11;;;;;;;19.87;11.17;;;12.40;99.90;;;;;;5045879;28;21191;-61
2023/04/23 04:23:38;;;;;;;15.03;9.23;;;12.50;99.90;;;;;;5047449;28;20492;-61
2023/04/23 04:26:06;;;;;;;19.20;10.80;;;12.50;99.90;;;;;;5032621;28;20755;-61
2023/04/23 04:28:35;;;;;;;16.77;10.90;;;12.50;99.90;;;;;;5069802;28;21067;-61
2023/04/23 04:31:01;;;;;;;18.03;9.17;;;12.60;99.90;;;;;;5054148;28;20582;-61
2023/04/23 04:33:29;;;;;;;18.93;10.20;;;12.60;99.90;;;;;;5043334;28;21057;-61
2023/04/23 04:35:58;;;;;;;21.37;10.70;;;12.60;99.90;;;;;;5044676;28;20484;-61
2023/04/23 04:38:25;;;;;;;24.03;11.33;;;12.60;99.90;;;;;;5028960;28;20999;-61
2023/04/23 04:40:54;;;;;;;17.80;10.10;;;12.60;99.90;;;;;;5040212;28;20881;-61
2023/04/23 04:43:21;;;;;;;25.73;12.93;;;12.60;99.90;;;;;;5033355;28;20644;-61
2023/04/23 04:45:48;;;;;;;26.30;9.93;;;12.60;99.90;;;;;;5037778;28;20488;-61
2023/04/23 04:48:14;;;;;;;23.23;14.00;;;12.60;99.90;;;;;;5044448;28;20479;-61
2023/04/23 04:50:43;;;;;;;15.87;10.20;;;12.60;99.90;;;;;;5037123;28;20484;-61
2023/04/23 04:53:09;;;;;;;25.30;10.87;;;12.60;99.90;;;;;;5048010;28;20482;-61
2023/04/23 04:55:36;;;;;;;20.17;11.73;;;12.60;99.90;;;;;;5060280;28;20483;-61
2023/04/23 04:58:03;;;;;;;25.10;12.80;;;12.70;99.90;;;;;;5042410;28;21119;-61
2023/04/23 05:00:30;;;;;;;20.70;10.50;;;12.70;99.90;;;;;;5052878;28;20462;-61
2023/04/23 05:02:58;;;;;;;22.40;12.43;;;12.70;99.90;;;;;;5058227;28;20527;-61
2023/04/23 05:05:25;;;;;;;23.63;13.03;;;12.70;99.90;;;;;;5058125;28;20976;-61
2023/04/23 05:07:57;;;;;;;23.73;10.93;;;12.70;99.90;;;;;;5053933;28;20479;-61
2023/04/23 05:10:25;;;;;;;16.37;10.40;;;12.70;99.90;;;;;;5045976;28;20484;-61
2023/04/23 05:12:52;;;;;;;26.07;12.57;;;;;;;;;;5060815;28;20481;-61
2023/04/23 05:15:18;;;;;;;18.27;11.07;;;13.00;99.90;;;;;;5050750;28;20484;-61
2023/04/23 05:17:45;;;;;;;15.70;10.10;;;13.00;99.90;;;;;;5051889;28;20861;-61
2023/04/23 05:20:13;;;;;;;17.27;10.13;;;;;;;;;;5058488;28;20486;-61
2023/04/23 05:22:41;;;;;;;20.23;11.90;;;12.90;99.90;;;;;;5071949;28;20559;-61
2023/04/23 05:25:10;;;;;;;15.63;10.57;;;12.90;99.90;;;;;;5072051;28;20487;-61
2023/04/23 05:27:37;;;;;;;32.57;13.80;;;12.80;99.90;;;;;;5064829;28;20679;-61
2023/04/23 05:30:07;;;;;;;20.13;11.50;;;12.80;99.90;;;;;;5070299;28;20467;-61
2023/04/23 05:32:34;;;;;;;19.53;11.37;;;12.80;99.90;;;;;;5051443;28;20517;-61
2023/04/23 05:35:01;;;;;;;22.07;10.53;;;12.70;99.90;;;;;;5071718;28;21071;-61
2023/04/23 05:37:28;;;;;;;18.57;12.27;;;12.70;99.90;;;;;;5056592;28;21060;-61
2023/04/23 05:39:56;;;;;;;14.20;9.90;;;12.80;99.90;;;;;;5073657;28;20856;-61
2023/04/23 05:42:24;;;;;;;12.60;9.83;;;12.70;99.90;;;;;;5064862;28;20583;-61
2023/04/23 05:44:51;;;;;;;15.87;11.13;;;12.70;99.90;;;;;;5041316;28;20471;-61
2023/04/23 05:47:18;;;;;;;17.50;11.40;;;12.80;99.90;;;;;;5075118;28;20486;-61
2023/04/23 05:49:45;;;;;;;16.53;10.70;;;12.80;99.90;;;;;;5067816;28;20481;-61
2023/04/23 05:52:13;;;;;;;21.23;12.43;;;12.80;99.90;;;;;;5071673;28;20487;-61
2023/04/23 05:54:39;;;;;;;19.63;13.03;;;12.70;99.90;;;;;;5074165;28;20596;-61
2023/04/23 05:57:06;;;;;;;26.13;12.30;;;12.70;99.90;;;;;;5071459;28;20487;-61
2023/04/23 05:59:34;;;;;;;20.17;13.17;;;12.70;99.90;;;;;;5073776;28;20486;-60
2023/04/23 06:02:01;;;;;;;18.77;12.23;;;12.60;99.90;;;;;;5057765;28;21664;-61
2023/04/23 06:04:28;;;;;;;20.93;10.53;;;12.60;99.90;;;;;;5044911;28;20493;-61
2023/04/23 06:06:55;;;;;;;19.27;12.60;;;12.60;99.90;;;;;;5081975;28;20466;-61
2023/04/23 06:09:21;;;;;;;22.23;13.10;;;12.60;99.90;;;;;;5090590;28;20473;-61
2023/04/23 06:11:49;;;;;;;32.37;11.47;;;12.60;99.90;;;;;;5076167;28;20481;-61
2023/04/23 06:14:16;;;;;;;18.23;12.20;;;12.60;99.90;;;;;;5063267;28;20489;-61
2023/04/23 06:16:44;;;;;;;19.87;13.10;;;12.60;99.90;;;;;;5070603;28;21169;-61
2023/04/23 06:19:11;;;;;;;24.50;12.87;;;12.60;99.90;;;;;;5036963;28;20822;-61
2023/04/23 06:21:38;;;;;;;18.90;11.97;;;12.50;99.90;;;;;;5061984;28;20908;-61
2023/04/23 06:24:06;;;;;;;20.87;12.47;;;12.60;99.90;;;;;;5057286;28;20474;-61
2023/04/23 06:26:32;;;;;;;23.53;11.80;;;12.70;99.90;;;;;;5059764;28;20898;-61
2023/04/23 06:28:59;;;;;;;24.63;12.80;;;12.80;99.90;;;;;;5080499;28;20487;-61
2023/04/23 06:31:26;;;;;;;22.20;12.60;;;12.80;99.90;;;;;;5050488;28;20937;-61
2023/04/23 06:33:54;;;;;;;18.27;9.20;;;12.90;99.90;;;;;;5051495;28;20481;-61
2023/04/23 06:36:21;;;;;;;18.80;12.50;;;12.90;99.90;;;;;;5064938;28;20486;-61
2023/04/23 06:38:47;;;;;;;24.90;13.53;;;13.00;99.90;;;;;;5070291;28;20474;-61
2023/04/23 06:41:15;;;;;;;23.27;13.10;;;13.00;99.90;;;;;;5068660;28;20497;-61
2023/04/23 06:43:42;;;;;;;14.97;9.33;;;13.00;99.90;;;;;;5074368;28;20482;-61
2023/04/23 06:46:08;;;;;;;24.83;13.57;;;13.20;99.90;;;;;;5075573;28;20477;-61
2023/04/23 06:48:36;;;;;;;19.77;10.40;;;13.20;99.90;;;;;;5066679;28;20839;-61
2023/04/23 06:51:04;;;;;;;21.50;11.40;;;13.20;99.90;;;;;;5054335;28;20508;-61
2023/04/23 06:53:31;;;;;;;18.57;9.23;;;13.10;99.90;;;;;;5067593;28;20483;-61
2023/04/23 06:55:58;;;;;;;15.93;10.00;;;13.30;99.90;;;;;;5078920;28;20479;-61
2023/04/23 06:58:30;;;;;;;15.67;10.37;;;13.20;99.90;;;;;;5068106;28;20979;-61
2023/04/23 07:00:58;;;;;;;14.00;10.20;;;13.20;99.90;;;;;;5057371;28;20509;-61
2023/04/23 07:03:25;;;;;;;19.10;10.97;;;13.30;99.90;;;;;;5056446;28;20486;-61
2023/04/23 07:05:52;;;;;;;12.40;7.70;;;13.20;99.90;;;;;;5059334;28;20483;-61
2023/04/23 07:08:20;;;;;;;12.00;8.47;;;13.20;99.90;;;;;;5055771;28;21374;-61
2023/04/23 07:10:47;;;;;;;15.13;10.60;;;13.30;99.90;;;;;;5066936;28;20562;-62
2023/04/23 07:13:14;;;;;;;13.90;10.37;;;13.30;99.90;;;;;;5063760;28;20483;-61
2023/04/23 07:15:41;;;;;;;13.60;8.87;;;13.40;99.90;;;;;;5048999;28;20500;-62
2023/04/23 07:18:08;;;;;;;14.93;7.13;;;13.50;99.90;;;;;;5064664;28;20490;-61
2023/04/23 07:20:35;;;;;;;11.57;8.60;;;13.50;99.90;;;;;;5072307;28;20470;-61
2023/04/23 07:23:02;;;;;;;13.20;9.93;;;13.40;99.90;;;;;;5024379;28;20477;-62
2023/04/23 07:25:31;;;;;;;12.13;8.87;;;13.40;99.90;;;;;;5066759;28;21047;-61
2023/04/23 07:27:58;;;;;;;14.03;9.37;;;13.50;99.90;;;;;;5071807;28;20502;-61
2023/04/23 07:30:26;;;;;;;14.20;9.40;;;13.50;99.90;;;;;;5061032;28;20979;-62
2023/04/23 07:32:54;;;;;;;17.50;10.33;;;13.50;99.90;;;;;;5023410;28;20479;-61
2023/04/23 07:35:21;;;;;;;13.87;9.97;;;13.50;99.90;;;;;;5059083;28;20490;-62
2023/04/23 07:37:52;;;;;;;10.07;8.10;;;13.60;99.90;;;;;;5064913;28;20471;-61
2023/04/23 07:40:20;;;;;;;18.23;11.43;;;13.60;99.90;;;;;;5071619;28;20994;-62
2023/04/23 07:42:49;;;;;;;17.23;10.63;;;13.70;99.90;;;;;;5067148;28;20987;-62
2023/04/23 07:45:15;;;;;;;28.50;9.90;;;13.80;99.90;;;;;;5052306;28;20478;-61
2023/04/23 07:47:42;;;;;;;10.57;8.00;;;13.70;99.90;;;;;;5044608;28;20477;-62
2023/04/23 07:50:10;;;;;;;17.40;11.80;;;13.80;99.90;;;;;;5064423;28;21016;-61
2023/04/23 07:52:36;;;;;;;30.87;11.20;;;13.80;99.90;;;;;;5059816;28;20486;-61
2023/04/23 07:55:03;;;;;;;15.10;9.90;;;13.90;99.90;;;;;;5069558;28;20482;-61
2023/04/23 07:57:30;;;;;;;12.83;8.93;;;14.00;99.90;;;;;;5060735;28;20486;-61
2023/04/23 07:59:58;;;;;;;8.57;7.03;;;14.10;99.90;;;;;;5049929;28;20911;-61
2023/04/23 08:02:26;;;;;;;12.90;9.27;;;14.10;99.90;;;;;;5062541;28;20491;-61
2023/04/23 08:04:53;;;;;;;13.67;8.43;;;14.10;99.90;;;;;;5059688;28;21066;-61
2023/04/23 08:07:19;;;;;;;15.37;8.63;;;14.30;99.90;;;;;;5055421;28;21048;-61
2023/04/23 08:09:46;;;;;;;13.73;8.23;;;14.40;99.90;;;;;;5049128;28;20784;-62
2023/04/23 08:12:15;;;;;;;14.50;10.13;;;14.50;99.90;;;;;;5048215;28;20500;-62
2023/04/23 08:14:42;;;;;;;18.70;8.37;;;14.80;99.90;;;;;;5044243;28;20584;-62
2023/04/23 08:17:10;;;;;;;17.90;9.33;;;14.90;99.90;;;;;;5053437;28;20685;-62
2023/04/23 08:19:37;;;;;;;10.50;8.00;;;15.10;99.90;;;;;;5041359;28;20490;-61
2023/04/23 08:22:04;;;;;;;15.33;7.60;;;15.30;99.90;;;;;;5058588;28;20486;-62
2023/04/23 08:24:31;;;;;;;10.47;7.63;;;15.40;99.90;;;;;;5068218;28;20486;-62
2023/04/23 08:26:58;;;;;;;11.93;8.07;;;15.10;99.90;;;;;;5061176;28;20486;-62
2023/04/23 08:29:24;;;;;;;19.47;8.23;;;15.10;99.90;;;;;;5059793;28;20570;-61
2023/04/23 08:31:51;;;;;;;42.57;8.90;;;15.10;99.90;;;;;;5048904;28;20472;-61
2023/04/23 08:34:19;;;;;;;10.37;6.80;;;15.20;99.90;;;;;;5064720;28;21022;-61
2023/04/23 08:36:47;;;;;;;13.40;7.10;;;15.30;99.90;;;;;;5045868;28;20862;-62
2023/04/23 08:39:14;;;;;;;19.30;10.47;;;15.30;99.90;;;;;;5071221;28;20478;-62
2023/04/23 08:41:42;;;;;;;16.50;6.80;;;15.50;99.90;;;;;;5064197;28;21014;-62
2023/04/23 08:44:14;;;;;;;18.57;10.60;;;15.70;99.90;;;;;;5062087;28;20706;-62
2023/04/23 08:46:43;;;;;;;12.60;7.53;;;15.80;99.90;;;;;;5052034;28;20514;-62
2023/04/23 08:49:15;;;;;;;15.57;7.90;;;15.90;99.90;;;;;;5077726;28;20497;-62
2023/04/23 08:51:49;;;;;;;13.80;9.00;;;15.90;99.90;;;;;;5069890;28;20583;-62
2023/04/23 08:54:21;;;;;;;10.33;7.87;;;16.00;99.90;;;;;;5063923;28;20486;-62
2023/04/23 08:56:50;;;;;;;14.30;6.20;;;16.20;99.90;;;;;;5062776;28;20486;-62
2023/04/23 08:59:19;;;;;;;22.80;10.97;;;16.50;99.90;;;;;;5072200;28;20482;-62
2023/04/23 09:01:47;;;;;;;13.40;7.97;;;16.50;99.90;;;;;;5078111;28;20695;-62
2023/04/23 09:04:15;;;;;;;16.80;10.10;;;16.50;99.90;;;;;;5055049;28;20490;-62
2023/04/23 09:06:44;;;;;;;10.77;6.80;;;16.50;99.90;;;;;;5062365;28;20976;-62
2023/04/23 09:09:11;;;;;;;11.50;7.63;;;16.60;99.90;;;;;;5043474;28;20474;-62
2023/04/23 09:11:38;;;;;;;10.87;7.80;;;16.70;99.90;;;;;;5059703;28;20575;-61
2023/04/23 09:14:05;;;;;;;18.43;8.20;;;17.00;99.90;;;;;;5062144;28;21190;-62
2023/04/23 09:16:32;;;;;;;10.93;7.47;;;16.90;99.40;;;;;;5052275;28;20585;-61
2023/04/23 09:18:59;;;;;;;12.50;8.10;;;17.10;99.90;;;;;;5052722;28;20858;-62
2023/04/23 09:21:26;;;;;;;14.87;8.73;;;17.10;98.80;;;;;;5051393;28;20494;-62
2023/04/23 09:23:54;;;;;;;12.97;6.73;;;17.00;99.90;;;;;;5056543;28;20487;-62
2023/04/23 09:26:22;;;;;;;11.40;7.50;;;16.80;99.10;;;;;;5061887;28;20589;-62
2023/04/23 09:28:50;;;;;;;11.77;7.13;;;16.80;99.10;;;;;;5075260;28;20478;-62
2023/04/23 09:31:20;;;;;;;11.03;6.93;;;16.80;99.50;;;;;;5057622;28;20593;-62
2023/04/23 09:33:52;;;;;;;12.27;8.00;;;16.90;99.70;;;;;;5078298;28;20524;-62
2023/04/23 09:36:22;;;;;;;12.73;8.37;;;17.00;99.40;;;;;;5047653;28;20531;-62
2023/04/23 09:38:49;;;;;;;14.50;7.13;;;17.20;98.50;;;;;;5055279;28;20578;-62
2023/04/23 09:41:24;;;;;;;10.40;6.50;;;17.30;99.50;;;;;;5063904;28;20508;-62
2023/04/23 09:43:53;;;;;;;14.17;7.03;;;17.60;99.40;;;;;;5056087;28;20489;-62
2023/04/23 09:46:33;;;;;;;8.97;6.53;;;17.70;98.60;;;;;;5069888;28;20513;-62
2023/04/23 09:49:02;;;;;;;12.67;7.80;;;17.80;98.00;;;;;;5050368;28;20804;-62
2023/04/23 09:51:30;;;;;;;11.37;6.77;;;17.80;96.60;;;;;;5066612;28;20482;-62
2023/04/23 09:53:57;;;;;;;10.50;6.53;;;17.50;96.30;;;;;;5062971;28;20536;-62
2023/04/23 09:56:25;;;;;;;12.53;8.13;;;17.40;97.70;;;;;;5033666;28;20797;-63
2023/04/23 09:58:53;;;;;;;10.30;6.80;;;17.40;97.60;;;;;;5072883;28;20486;-62
2023/04/23 10:01:28;;;;;;;11.20;6.13;;;17.50;96.80;;;;;;5078238;28;20494;-62
2023/04/23 10:03:55;;;;;;;11.93;5.77;;;17.60;98.10;;;;;;5035576;28;20516;-62
2023/04/23 10:06:28;;;;;;;12.73;7.13;;;17.60;97.90;;;;;;5061246;28;20977;-62
2023/04/23 10:08:56;;;;;;;8.97;6.20;;;17.70;97.70;;;;;;5060168;28;20490;-63
2023/04/23 10:11:24;;;;;;;12.33;7.07;;;17.60;96.90;;;;;;5082008;28;20817;-62
2023/04/23 10:13:53;;;;;;;13.03;7.13;;;17.70;96.40;;;;;;5061646;28;20787;-63
2023/04/23 10:16:22;;;;;;;8.03;6.20;;;17.70;96.70;;;;;;5066022;28;20962;-62
2023/04/23 10:18:51;;;;;;;10.07;6.77;;;17.80;96.40;;;;;;5064553;28;20940;-63
2023/04/23 10:21:19;;;;;;;9.57;6.13;;;18.00;96.50;;;;;;5067925;28;20983;-63
2023/04/23 10:23:49;;;;;;;20.53;5.40;;;17.90;96.50;;;;;;5065055;28;20486;-63
2023/04/23 10:26:17;;;;;;;7.57;6.10;;;17.80;96.10;;;;;;5071031;28;20481;-63
2023/04/23 10:28:48;;;;;;;9.67;7.10;;;17.70;95.50;;;;;;5069148;28;20851;-63
2023/04/23 10:31:15;;;;;;;8.50;4.50;;;17.80;95.60;;;;;;5058827;28;20610;-62
2023/04/23 10:33:43;;;;;;;4.87;4.37;;;18.00;97.40;;;;;;5055145;28;20939;-63
2023/04/23 10:36:11;;;;;;;8.53;5.17;;;18.20;96.40;;;;;;5058915;28;20478;-62
2023/04/23 10:38:40;;;;;;;6.57;3.90;;;18.50;95.60;;;;;;5068842;28;20485;-62
2023/04/23 10:41:08;;;;;;;7.63;5.53;;;18.20;94.40;;;;;;5065788;28;21074;-63
2023/04/23 10:43:36;;;;;;;9.50;6.20;;;18.20;94.60;;;;;;5077831;28;20491;-63
2023/04/23 10:46:27;;;;;;;7.30;6.40;;;18.30;94.80;;;;;;5075268;28;20497;-63
2023/04/23 10:49:06;;;;;;;12.63;6.27;;;18.60;96.20;;;;;;5057357;28;20488;-63
2023/04/23 10:51:33;;;;;;;6.40;5.20;;;18.90;97.50;;;;;;5071727;28;20560;-63
2023/04/23 10:54:01;;;;;;;6.70;5.00;;;18.90;94.70;;;;;;5070343;28;20942;-62
2023/04/23 10:56:28;;;;;;;10.60;4.30;;;19.00;95.10;;;;;;5079758;28;20482;-62
2023/04/23 10:58:55;;;;;;;6.50;4.73;;;19.00;93.90;;;;;;5078327;28;20481;-63
2023/04/23 11:01:26;;;;;;;9.10;6.83;;;18.70;92.50;;;;;;5094729;28;20486;-62
2023/04/23 11:03:52;;;;;;;8.70;5.50;;;18.20;93.80;;;;;;5059213;28;20527;-62
2023/04/23 11:06:42;;;;;;;5.47;4.93;;;18.10;93.60;;;;;;5062878;28;21086;-63
2023/04/23 11:09:30;;;;;;;9.73;6.77;;;18.00;93.80;;;;;;5047721;28;20550;-62
2023/04/23 11:11:57;;;;;;;18.73;6.07;;;;;;;;;;5068462;28;20541;-61
2023/04/23 11:14:35;;;;;;;9.53;6.57;;;18.40;93.90;;;;;;5062726;28;21290;-63
2023/04/23 11:17:04;;;;;;;5.93;4.87;;;18.30;93.60;;;;;;5073103;28;20478;-62
2023/04/23 11:19:31;;;;;;;9.30;5.07;;;18.40;93.70;;;;;;5030136;28;20591;-63
2023/04/23 11:22:02;;;;;;;6.80;5.70;;;18.70;94.00;;;;;;5080647;28;20489;-63
2023/04/23 11:24:31;;;;;;;9.10;6.27;;;19.10;94.40;;;;;;5054228;28;21000;-63
2023/04/23 11:26:58;;;;;;;8.90;4.90;;;19.30;94.50;;;;;;5065920;28;20530;-63
2023/04/23 11:29:26;;;;;;;7.43;5.10;;;19.40;93.60;;;;;;5067545;28;20483;-62
2023/04/23 11:31:54;;;;;;;7.60;4.20;;;19.30;92.10;;;;;;5047224;28;20478;-62
2023/04/23 11:34:24;;;;;;;9.87;5.60;;;19.10;90.70;;;;;;5063679;28;20481;-63
2023/04/23 11:36:53;;;;;;;9.00;6.00;;;18.90;90.40;;;;;;5058758;28;20544;-63
2023/04/23 11:39:20;;;;;;;6.80;4.50;;;18.70;91.80;;;;;;5070944;28;20577;-63
2023/04/23 11:41:48;;;;;;;6.90;5.30;;;18.70;91.30;;;;;;5072480;28;20486;-63
2023/04/23 11:44:15;;;;;;;6.47;4.77;;;18.70;91.10;;;;;;5039216;28;20493;-63
2023/04/23 11:46:42;;;;;;;12.53;4.03;;;18.50;90.90;;;;;;5075702;28;20486;-62
2023/04/23 11:49:09;;;;;;;14.20;7.43;;;18.60;91.90;;;;;;5054695;28;20487;-63
2023/04/23 11:51:42;;;;;;;6.10;5.50;;;18.70;91.50;;;;;;5085142;28;20908;-63
2023/04/23 11:54:09;;;;;;;8.97;4.57;;;19.10;92.90;;;;;;5072259;28;20524;-63
2023/04/23 11:56:36;;;;;;;5.97;4.70;;;18.80;91.30;;;;;;5065747;28;20485;-63
2023/04/23 11:59:04;;;;;;;5.20;3.70;;;19.30;92.60;;;;;;5053691;28;20510;-62
2023/04/23 12:01:41;;;;;;;11.63;4.00;;;19.60;90.90;;;;;;5055902;28;20485;-63
2023/04/23 12:04:15;;;;;;;6.87;5.10;;;19.80;92.90;;;;;;5053107;28;20624;-63
2023/04/23 12:06:45;;;;;;;5.70;5.00;;;19.60;90.80;;;;;;5084939;28;21416;-63
2023/04/23 12:09:12;;;;;;;7.07;4.70;;;19.70;91.00;;;;;;5033383;28;20473;-62
2023/04/23 12:11:40;;;;;;;6.10;5.40;;;19.70;90.60;;;;;;5072793;28;20453;-63
2023/04/23 12:14:08;;;;;;;7.23;4.17;;;19.80;90.00;;;;;;5070677;28;20578;-62
2023/04/23 12:16:36;;;;;;;5.90;4.23;;;19.80;90.70;;;;;;5071685;28;20535;-63
2023/04/23 12:19:03;;;;;;;4.50;3.70;;;19.50;88.40;;;;;;5094641;28;20493;-63
2023/04/23 12:21:31;;;;;;;10.40;4.73;;;19.70;90.80;;;;;;5086937;28;20478;-62
2023/04/23 12:24:03;;;;;;;5.93;4.50;;;19.60;90.50;;;;;;5054908;28;20478;-63
2023/04/23 12:26:30;;;;;;;5.93;4.10;;;;;;;;;;5041162;28;20584;-63
2023/04/23 12:28:59;;;;;;;5.30;4.40;;;19.90;90.80;;;;;;5048873;28;20487;-63
2023/04/23 12:31:26;;;;;;;8.17;5.90;;;20.10;91.30;;;;;;5057378;28;21137;-62
2023/04/23 12:34:02;;;;;;;5.80;3.80;;;20.20;91.40;;;;;;5077100;28;21253;-63
2023/04/23 12:36:30;;;;;;;6.00;3.70;;;20.20;89.90;;;;;;5070050;28;20452;-63
2023/04/23 12:39:19;;;;;;;7.90;5.70;;;20.60;90.10;;;;;;5065013;28;20478;-62